createdAt,value
2022-12-11T00:00:27.550Z,21.30
2022-12-11T00:02:54.848Z,21.60
2022-12-11T00:05:22.068Z,21.40
2022-12-11T00:07:48.901Z,21.60
2022-12-11T00:10:15.696Z,22.33
2022-12-11T00:12:42.855Z,21.30
2022-12-11T00:15:10.414Z,21.57
2022-12-11T00:17:37.777Z,21.90
2022-12-11T00:20:05.134Z,20.20
2022-12-11T00:22:31.997Z,21.73
2022-12-11T00:24:59.119Z,21.40
2022-12-11T00:27:26.035Z,22.60
2022-12-11T00:29:53.131Z,23.70
2022-12-11T00:32:20.280Z,22.03
2022-12-11T00:34:47.385Z,22.90
2022-12-11T00:37:14.291Z,23.20
2022-12-11T00:39:41.491Z,22.70
2022-12-11T00:42:09.019Z,22.07
2022-12-11T00:44:36.225Z,21.77
2022-12-11T00:47:03.715Z,21.93
2022-12-11T00:49:30.884Z,23.27
2022-12-11T00:51:57.963Z,24.30
2022-12-11T00:54:25.115Z,22.60
2022-12-11T00:56:52.242Z,23.37
2022-12-11T00:59:19.532Z,23.93
2022-12-11T01:01:46.732Z,24.30
2022-12-11T01:04:13.923Z,23.40
2022-12-11T01:06:41.117Z,23.07
2022-12-11T01:09:26.887Z,23.50
2022-12-11T01:11:54.029Z,22.43
2022-12-11T01:14:20.753Z,23.13
2022-12-11T01:16:47.979Z,22.37
2022-12-11T01:19:15.307Z,23.57
2022-12-11T01:21:42.025Z,24.00
2022-12-11T01:24:08.861Z,24.80
2022-12-11T01:26:36.033Z,26.27
2022-12-11T01:29:03.207Z,24.50
2022-12-11T01:31:30.377Z,24.80
2022-12-11T01:33:57.501Z,23.67
2022-12-11T01:36:24.842Z,24.77
2022-12-11T01:38:54.312Z,23.43
2022-12-11T01:41:21.660Z,24.10
2022-12-11T01:44:01.865Z,23.53
2022-12-11T01:46:29.790Z,24.70
2022-12-11T01:48:57.462Z,24.67
2022-12-11T01:51:24.965Z,24.00
2022-12-11T01:54:00.642Z,23.70
2022-12-11T01:56:30.162Z,23.83
2022-12-11T01:59:00.345Z,23.63
2022-12-11T02:01:51.026Z,27.03
2022-12-11T02:04:19.766Z,26.90
2022-12-11T02:06:49.015Z,28.37
2022-12-11T02:09:23.684Z,27.87
2022-12-11T02:12:10.714Z,28.40
2022-12-11T02:15:20.480Z,27.13
2022-12-11T02:17:56.373Z,27.10
2022-12-11T02:20:55.628Z,29.07
2022-12-11T02:23:31.658Z,29.13
2022-12-11T02:26:21.566Z,30.00
2022-12-11T02:29:17.089Z,28.83
2022-12-11T02:32:15.570Z,29.07
2022-12-11T02:34:49.371Z,30.23
2022-12-11T02:37:23.252Z,30.00
2022-12-11T02:39:53.656Z,30.53
2022-12-11T02:42:21.821Z,29.00
2022-12-11T02:44:50.703Z,30.00
2022-12-11T02:47:19.981Z,32.30
2022-12-11T02:49:50.069Z,31.40
2022-12-11T02:52:21.707Z,31.03
2022-12-11T02:54:50.861Z,30.40
2022-12-11T02:57:57.596Z,31.30
2022-12-11T03:00:24.722Z,33.50
2022-12-11T03:02:51.676Z,31.70
2022-12-11T03:05:18.476Z,31.07
2022-12-11T03:07:45.513Z,29.40
2022-12-11T03:10:15.550Z,33.00
2022-12-11T03:12:47.034Z,33.60
2022-12-11T03:15:20.333Z,30.27
2022-12-11T03:17:47.453Z,31.50
2022-12-11T03:20:44.030Z,34.17
2022-12-11T03:23:32.260Z,34.23
2022-12-11T03:26:04.592Z,35.67
2022-12-11T03:28:37.163Z,32.10
2022-12-11T03:31:09.527Z,34.53
2022-12-11T03:33:40.466Z,36.63
2022-12-11T03:36:19.306Z,33.43
2022-12-11T03:39:08.026Z,32.40
2022-12-11T03:41:37.759Z,31.87
2022-12-11T03:44:04.802Z,34.30
2022-12-11T03:46:35.459Z,31.63
2022-12-11T03:49:16.418Z,31.03
2022-12-11T03:51:46.672Z,30.80
2022-12-11T03:54:13.833Z,35.33
2022-12-11T03:56:43.003Z,34.03
2022-12-11T03:59:09.952Z,32.90
2022-12-11T04:01:37.215Z,33.70
2022-12-11T04:04:04.314Z,33.60
2022-12-11T04:06:31.483Z,36.07
2022-12-11T04:08:58.177Z,37.50
2022-12-11T04:11:34.437Z,34.73
2022-12-11T04:14:28.989Z,36.70
2022-12-11T04:16:56.649Z,37.70
2022-12-11T04:19:42.698Z,36.80
2022-12-11T04:22:34.602Z,35.20
2022-12-11T04:25:02.718Z,37.53
2022-12-11T04:27:48.519Z,37.03
2022-12-11T04:30:21.513Z,36.20
2022-12-11T04:32:48.757Z,38.87
2022-12-11T04:35:15.941Z,38.73
2022-12-11T04:37:43.049Z,37.70
2022-12-11T04:40:12.947Z,37.77
2022-12-11T04:42:39.731Z,36.13
2022-12-11T04:45:08.376Z,37.53
2022-12-11T04:47:39.536Z,37.30
2022-12-11T04:50:08.240Z,38.90
2022-12-11T04:52:34.975Z,38.73
2022-12-11T04:55:02.063Z,38.73
2022-12-11T04:57:28.779Z,35.97
2022-12-11T04:59:55.950Z,39.97
2022-12-11T05:02:23.145Z,38.43
2022-12-11T05:04:49.999Z,38.40
2022-12-11T05:07:17.080Z,37.83
2022-12-11T05:09:43.928Z,37.77
2022-12-11T05:12:10.662Z,38.27
2022-12-11T05:14:37.779Z,36.03
2022-12-11T05:17:04.892Z,37.13
2022-12-11T05:19:31.635Z,37.10
2022-12-11T05:21:58.773Z,40.67
2022-12-11T05:24:25.524Z,40.60
2022-12-11T05:26:52.288Z,38.50
2022-12-11T05:29:19.486Z,35.87
2022-12-11T05:31:46.692Z,40.00
2022-12-11T05:34:15.179Z,40.47
2022-12-11T05:36:42.337Z,37.80
2022-12-11T05:39:09.630Z,38.03
2022-12-11T05:41:36.808Z,36.40
2022-12-11T05:44:03.886Z,38.70
2022-12-11T05:46:31.236Z,39.20
2022-12-11T05:49:00.479Z,35.37
2022-12-11T05:51:28.186Z,38.03
2022-12-11T05:53:56.763Z,37.60
2022-12-11T05:56:26.391Z,36.20
2022-12-11T05:58:53.920Z,39.87
2022-12-11T06:01:28.878Z,33.97
2022-12-11T06:03:56.599Z,39.10
2022-12-11T06:06:24.556Z,37.17
2022-12-11T06:08:52.688Z,36.73
2022-12-11T06:11:23.973Z,37.97
2022-12-11T06:13:52.017Z,38.23
2022-12-11T06:16:19.426Z,41.67
2022-12-11T06:18:46.619Z,38.00
2022-12-11T06:21:14.412Z,39.00
2022-12-11T06:23:41.761Z,38.40
2022-12-11T06:26:09.399Z,40.90
2022-12-11T06:28:36.921Z,37.37
2022-12-11T06:31:04.133Z,37.13
2022-12-11T06:33:31.252Z,36.73
2022-12-11T06:36:11.927Z,37.77
2022-12-11T06:38:38.858Z,38.57
2022-12-11T06:41:07.039Z,39.07
2022-12-11T06:43:35.809Z,37.20
2022-12-11T06:46:06.545Z,37.30
2022-12-11T06:48:33.763Z,39.80
2022-12-11T06:51:00.932Z,37.17
2022-12-11T06:53:28.124Z,40.07
2022-12-11T06:55:55.242Z,38.90
2022-12-11T06:58:21.969Z,38.00
2022-12-11T07:00:49.156Z,37.27
2022-12-11T07:03:16.299Z,38.83
2022-12-11T07:05:43.048Z,36.83
2022-12-11T07:08:10.270Z,35.33
2022-12-11T07:10:37.454Z,30.23
2022-12-11T07:13:04.231Z,30.90
2022-12-11T07:15:30.912Z,27.20
2022-12-11T07:17:57.643Z,27.13
2022-12-11T07:20:24.789Z,23.17
2022-12-11T07:22:51.536Z,24.07
2022-12-11T07:25:18.612Z,22.70
2022-12-11T07:27:45.786Z,22.73
2022-12-11T07:30:13.111Z,23.20
2022-12-11T07:32:39.934Z,23.80
2022-12-11T07:35:07.041Z,22.70
2022-12-11T07:37:34.170Z,22.93
2022-12-11T07:40:01.312Z,22.00
2022-12-11T07:42:28.934Z,24.30
2022-12-11T07:44:56.085Z,21.90
2022-12-11T07:47:23.214Z,24.10
2022-12-11T07:49:50.352Z,23.63
2022-12-11T07:52:17.565Z,23.00
2022-12-11T07:54:44.287Z,21.77
2022-12-11T07:57:14.060Z,23.50
2022-12-11T07:59:41.927Z,21.43
2022-12-11T08:02:11.923Z,21.73
2022-12-11T08:04:39.242Z,23.10
2022-12-11T08:07:06.036Z,21.40
2022-12-11T08:09:33.228Z,21.87
2022-12-11T08:11:59.991Z,21.33
2022-12-11T08:14:27.189Z,22.33
2022-12-11T08:16:54.419Z,21.53
2022-12-11T08:19:21.721Z,22.17
2022-12-11T08:21:48.875Z,21.63
2022-12-11T08:24:20.145Z,20.57
2022-12-11T08:26:48.313Z,20.00
2022-12-11T08:29:15.493Z,20.53
2022-12-11T08:31:42.511Z,21.47
2022-12-11T08:34:13.757Z,20.90
2022-12-11T08:36:41.369Z,21.00
2022-12-11T08:39:08.533Z,20.10
2022-12-11T08:41:35.356Z,18.90
2022-12-11T08:44:02.131Z,20.90
2022-12-11T08:46:32.939Z,20.33
2022-12-11T08:49:00.052Z,20.70
2022-12-11T08:51:28.714Z,20.60
2022-12-11T08:53:57.256Z,19.47
2022-12-11T08:56:24.962Z,19.33
2022-12-11T08:58:52.572Z,21.20
2022-12-11T09:01:22.923Z,20.73
2022-12-11T09:03:51.236Z,20.67
2022-12-11T09:06:21.025Z,19.50
2022-12-11T09:08:52.590Z,20.50
2022-12-11T09:11:32.584Z,20.20
2022-12-11T09:14:06.891Z,19.10
2022-12-11T09:16:37.739Z,19.30
2022-12-11T09:19:05.040Z,18.80
2022-12-11T09:21:31.745Z,21.27
2022-12-11T09:24:00.824Z,19.93
2022-12-11T09:26:29.266Z,18.57
2022-12-11T09:28:56.768Z,18.50
2022-12-11T09:31:25.285Z,18.63
2022-12-11T09:33:54.646Z,19.50
2022-12-11T09:36:21.853Z,20.37
2022-12-11T09:38:48.886Z,17.70
2022-12-11T09:41:21.609Z,18.07
2022-12-11T09:44:17.852Z,15.30
2022-12-11T09:46:46.620Z,17.60
2022-12-11T09:49:28.872Z,17.40
2022-12-11T09:52:21.320Z,17.30
2022-12-11T09:54:55.609Z,18.00
2022-12-11T09:57:48.361Z,17.03
2022-12-11T10:00:31.525Z,18.17
2022-12-11T10:03:18.839Z,17.70
2022-12-11T10:06:25.680Z,16.33
2022-12-11T10:09:15.555Z,16.00
2022-12-11T10:11:54.468Z,18.00
2022-12-11T10:14:36.112Z,16.67
2022-12-11T10:17:10.982Z,16.30
2022-12-11T10:19:39.924Z,15.47
2022-12-11T10:22:17.418Z,16.03
2022-12-11T10:25:12.521Z,16.60
2022-12-11T10:27:40.936Z,17.40
2022-12-11T10:30:14.307Z,16.80
2022-12-11T10:33:11.833Z,15.20
2022-12-11T10:35:57.250Z,15.23
2022-12-11T10:38:38.901Z,16.47
2022-12-11T10:41:12.400Z,18.33
2022-12-11T10:43:40.330Z,15.90
2022-12-11T10:46:33.156Z,16.10
2022-12-11T10:49:01.447Z,16.20
2022-12-11T10:51:31.289Z,16.27
2022-12-11T10:54:24.846Z,17.80
2022-12-11T10:56:51.767Z,15.83
2022-12-11T10:59:34.162Z,17.70
2022-12-11T11:02:01.431Z,14.60
2022-12-11T11:04:38.001Z,16.37
2022-12-11T11:07:19.515Z,15.73
2022-12-11T11:09:46.646Z,15.90
2022-12-11T11:12:40.954Z,15.90
2022-12-11T11:15:29.288Z,15.60
2022-12-11T11:18:03.488Z,16.33
2022-12-11T11:20:33.906Z,15.30
2022-12-11T11:23:03.749Z,14.53
2022-12-11T11:25:33.011Z,16.33
2022-12-11T11:28:06.396Z,15.37
2022-12-11T11:30:38.956Z,15.57
2022-12-11T11:33:19.842Z,16.43
2022-12-11T11:35:55.461Z,16.40
2022-12-11T11:39:11.502Z,14.37
2022-12-11T11:41:55.963Z,15.60
2022-12-11T11:44:31.701Z,14.17
2022-12-11T11:47:10.753Z,14.67
2022-12-11T11:49:43.680Z,14.33
2022-12-11T11:52:13.470Z,13.90
2022-12-11T11:54:52.728Z,15.27
2022-12-11T11:57:28.883Z,16.07
2022-12-11T12:00:09.940Z,14.17
2022-12-11T12:02:37.455Z,13.83
2022-12-11T12:05:04.684Z,12.97
2022-12-11T12:07:31.853Z,15.67
2022-12-11T12:10:28.729Z,15.23
2022-12-11T12:13:30.115Z,14.67
2022-12-11T12:15:59.468Z,14.77
2022-12-11T12:19:04.853Z,15.53
2022-12-11T12:21:36.422Z,14.80
2022-12-11T12:24:15.167Z,14.90
2022-12-11T12:27:43.331Z,15.00
2022-12-11T12:30:11.761Z,15.23
2022-12-11T12:32:55.092Z,14.33
2022-12-11T12:35:37.235Z,15.50
2022-12-11T12:38:13.156Z,15.83
2022-12-11T12:40:42.633Z,14.70
2022-12-11T12:43:42.972Z,16.40
2022-12-11T12:46:10.357Z,14.97
2022-12-11T12:48:37.422Z,16.90
2022-12-11T12:51:05.713Z,18.77
2022-12-11T12:53:36.738Z,14.80
2022-12-11T12:56:05.312Z,14.63
2022-12-11T12:58:35.436Z,15.33
2022-12-11T13:01:21.919Z,14.87
2022-12-11T13:03:56.512Z,15.93
2022-12-11T13:06:34.963Z,17.50
2022-12-11T13:09:13.421Z,15.70
2022-12-11T13:11:40.666Z,16.07
2022-12-11T13:14:07.876Z,16.10
2022-12-11T13:16:43.878Z,16.67
2022-12-11T13:19:26.274Z,16.53
2022-12-11T13:22:06.668Z,16.30
2022-12-11T13:24:34.458Z,17.03
2022-12-11T13:27:24.527Z,17.23
2022-12-11T13:29:51.366Z,16.40
2022-12-11T13:32:18.580Z,17.17
2022-12-11T13:34:53.663Z,16.03
2022-12-11T13:37:33.124Z,16.00
2022-12-11T13:40:03.776Z,15.87
2022-12-11T13:42:48.002Z,17.03
2022-12-11T13:45:38.014Z,15.53
2022-12-11T13:48:18.390Z,18.00
2022-12-11T13:50:48.134Z,15.73
2022-12-11T13:53:17.260Z,15.53
2022-12-11T13:55:45.333Z,17.38
2022-12-11T13:58:23.064Z,16.30
2022-12-11T14:01:05.301Z,16.63
2022-12-11T14:03:55.074Z,15.07
2022-12-11T14:06:23.957Z,15.60
2022-12-11T14:08:53.723Z,15.40
2022-12-11T14:11:29.873Z,15.53
2022-12-11T14:13:59.372Z,14.63
2022-12-11T14:16:27.514Z,15.13
2022-12-11T14:18:58.414Z,14.93
2022-12-11T14:21:26.082Z,15.00
2022-12-11T14:24:03.470Z,16.10
2022-12-11T14:26:35.505Z,16.33
2022-12-11T14:29:03.020Z,15.47
2022-12-11T14:31:41.867Z,16.53
2022-12-11T14:34:19.002Z,15.80
2022-12-11T14:36:48.013Z,14.33
2022-12-11T14:39:24.884Z,15.90
2022-12-11T14:42:00.907Z,17.30
2022-12-11T14:44:30.876Z,16.43
2022-12-11T14:47:17.055Z,15.33
2022-12-11T14:50:03.059Z,15.40
2022-12-11T14:52:40.840Z,14.07
2022-12-11T14:55:10.582Z,13.57
2022-12-11T14:57:42.503Z,14.90
2022-12-11T15:00:31.080Z,15.40
2022-12-11T15:03:06.819Z,14.97
2022-12-11T15:05:40.535Z,12.67
2022-12-11T15:08:10.426Z,14.20
2022-12-11T15:10:55.482Z,14.13
2022-12-11T15:13:25.729Z,14.60
2022-12-11T15:15:54.668Z,14.30
2022-12-11T15:18:30.035Z,14.70
2022-12-11T15:21:03.650Z,13.37
2022-12-11T15:26:16.575Z,15.60
2022-12-11T15:28:43.738Z,15.87
2022-12-11T15:31:27.252Z,15.13
2022-12-11T15:33:57.231Z,16.90
2022-12-11T15:36:31.563Z,17.27
2022-12-11T15:38:59.150Z,16.97
2022-12-11T15:41:28.200Z,16.67
2022-12-11T15:43:59.165Z,16.37
2022-12-11T15:46:26.802Z,20.23
2022-12-11T15:48:55.353Z,18.50
2022-12-11T15:51:23.196Z,16.63
2022-12-11T15:53:53.224Z,16.83
2022-12-11T15:56:20.565Z,16.20
2022-12-11T15:58:48.375Z,17.40
2022-12-11T16:01:15.750Z,17.67
2022-12-11T16:03:43.050Z,18.50
2022-12-11T16:06:13.380Z,20.27
2022-12-11T16:08:40.216Z,21.03
2022-12-11T16:11:07.421Z,19.87
2022-12-11T16:13:34.665Z,17.63
2022-12-11T16:16:01.897Z,16.67
2022-12-11T16:18:29.095Z,16.90
2022-12-11T16:20:56.377Z,19.67
2022-12-11T16:23:23.704Z,17.40
2022-12-11T16:25:50.827Z,18.57
2022-12-11T16:28:21.562Z,17.10
2022-12-11T16:30:49.183Z,18.40
2022-12-11T16:33:18.123Z,19.20
2022-12-11T16:35:45.394Z,19.07
2022-12-11T16:38:13.600Z,18.67
2022-12-11T16:40:41.760Z,17.13
2022-12-11T16:43:08.607Z,17.13
2022-12-11T16:45:36.969Z,17.87
2022-12-11T16:48:05.743Z,17.77
2022-12-11T16:50:34.149Z,19.70
2022-12-11T16:53:01.641Z,17.63
2022-12-11T16:55:28.531Z,18.27
2022-12-11T16:57:55.465Z,17.23
2022-12-11T17:00:24.140Z,18.33
2022-12-11T17:02:51.528Z,17.80
2022-12-11T17:05:18.574Z,17.90
2022-12-11T17:07:46.026Z,16.87
2022-12-11T17:10:13.270Z,18.80
2022-12-11T17:12:40.727Z,18.03
2022-12-11T17:15:07.847Z,19.13
2022-12-11T17:17:34.708Z,21.50
2022-12-11T17:20:02.013Z,19.13
2022-12-11T17:22:29.621Z,19.17
2022-12-11T17:24:56.498Z,19.33
2022-12-11T17:27:23.805Z,21.23
2022-12-11T17:29:51.234Z,21.00
2022-12-11T17:32:19.279Z,21.77
2022-12-11T17:34:48.209Z,21.60
2022-12-11T17:37:16.461Z,21.67
2022-12-11T17:39:43.550Z,19.60
2022-12-11T17:42:10.437Z,21.53
2022-12-11T17:44:38.625Z,20.03
2022-12-11T17:47:11.031Z,20.33
2022-12-11T17:49:39.771Z,20.77
2022-12-11T17:52:07.170Z,20.03
2022-12-11T17:54:35.558Z,20.97
2022-12-11T17:57:04.206Z,22.40
2022-12-11T17:59:32.134Z,20.90
2022-12-11T18:02:00.009Z,19.10
2022-12-11T18:04:31.338Z,22.43
2022-12-11T18:06:59.777Z,20.83
2022-12-11T18:09:27.143Z,22.70
2022-12-11T18:11:55.390Z,20.30
2022-12-11T18:14:23.919Z,21.20
2022-12-11T18:16:52.779Z,19.30
2022-12-11T18:19:23.395Z,18.63
2022-12-11T18:21:50.690Z,20.47
2022-12-11T18:24:19.044Z,19.83
2022-12-11T18:26:46.280Z,19.10
2022-12-11T18:29:13.455Z,18.47
2022-12-11T18:31:42.832Z,17.80
2022-12-11T18:34:10.959Z,18.43
2022-12-11T18:36:38.112Z,17.80
2022-12-11T18:39:05.293Z,17.93
2022-12-11T18:41:32.513Z,18.20
2022-12-11T18:44:08.125Z,19.43
2022-12-11T18:46:36.827Z,19.40
2022-12-11T18:49:03.704Z,18.93
2022-12-11T18:51:31.014Z,17.90
2022-12-11T18:53:58.053Z,18.10
2022-12-11T18:56:24.989Z,20.97
2022-12-11T18:58:52.555Z,18.07
2022-12-11T19:01:22.535Z,18.53
2022-12-11T19:03:51.363Z,19.00
2022-12-11T19:06:21.121Z,17.90
2022-12-11T19:08:48.485Z,20.00
2022-12-11T19:11:18.223Z,20.10
2022-12-11T19:16:38.883Z,18.70
2022-12-11T19:19:16.616Z,18.93
2022-12-11T19:21:44.315Z,17.30
2022-12-11T19:24:15.295Z,18.67
2022-12-11T19:26:42.651Z,18.33
2022-12-11T19:29:09.986Z,19.10
2022-12-11T19:31:37.136Z,19.00
2022-12-11T19:34:04.372Z,19.17
2022-12-11T19:36:33.644Z,19.40
2022-12-11T19:39:02.524Z,19.00
2022-12-11T19:41:31.633Z,20.97
2022-12-11T19:43:59.724Z,21.20
2022-12-11T19:46:27.373Z,22.43
2022-12-11T19:48:57.094Z,21.77
2022-12-11T19:51:28.565Z,21.53
2022-12-11T19:53:56.840Z,21.00
2022-12-11T19:56:24.510Z,22.90
2022-12-11T19:58:51.777Z,21.60
2022-12-11T20:01:24.859Z,21.13
2022-12-11T20:03:52.986Z,21.00
2022-12-11T20:06:20.134Z,22.83
2022-12-11T20:08:47.662Z,21.40
2022-12-11T20:11:18.363Z,24.40
2022-12-11T20:13:47.064Z,22.97
2022-12-11T20:16:15.938Z,21.70
2022-12-11T20:18:43.258Z,21.43
2022-12-11T20:21:14.600Z,23.33
2022-12-11T20:23:42.904Z,22.80
2022-12-11T20:26:15.427Z,21.97
2022-12-11T20:28:42.982Z,22.87
2022-12-11T20:31:19.556Z,23.40
2022-12-11T20:33:48.851Z,24.90
2022-12-11T20:36:17.792Z,24.27
2022-12-11T20:38:45.123Z,23.80
2022-12-11T20:41:14.319Z,24.37
2022-12-11T20:43:42.466Z,23.87
2022-12-11T20:46:11.379Z,25.13
2022-12-11T20:48:39.357Z,24.97
2022-12-11T20:51:08.065Z,22.87
2022-12-11T20:53:35.814Z,24.67
2022-12-11T20:56:08.462Z,24.53
2022-12-11T20:58:36.162Z,24.03
2022-12-11T21:01:03.410Z,23.03
2022-12-11T21:03:35.386Z,25.17
2022-12-11T21:06:04.395Z,27.43
2022-12-11T21:08:31.598Z,27.40
2022-12-11T21:10:59.542Z,26.70
2022-12-11T21:13:27.449Z,25.87
2022-12-11T21:15:56.920Z,27.77
2022-12-11T21:18:24.026Z,26.33
2022-12-11T21:20:56.165Z,27.20
2022-12-11T21:23:23.012Z,24.80
2022-12-11T21:25:51.873Z,26.40
2022-12-11T21:28:19.154Z,24.30
2022-12-11T21:30:46.634Z,25.70
2022-12-11T21:33:13.803Z,25.43
2022-12-11T21:35:41.012Z,24.90
2022-12-11T21:38:08.214Z,24.10
2022-12-11T21:40:35.249Z,24.73
2022-12-11T21:43:03.744Z,24.63
2022-12-11T21:46:00.444Z,27.57
2022-12-11T21:48:22.705Z,24.30
2022-12-11T21:50:49.469Z,23.63
2022-12-11T21:53:16.273Z,25.27
2022-12-11T21:55:43.155Z,24.37
2022-12-11T21:58:10.447Z,23.30
2022-12-11T22:00:39.097Z,22.63
2022-12-11T22:03:06.833Z,23.97
2022-12-11T22:05:33.944Z,24.60
2022-12-11T22:08:01.164Z,22.87
2022-12-11T22:10:29.067Z,21.53
2022-12-11T22:12:56.176Z,21.77
2022-12-11T22:15:23.457Z,23.33
2022-12-11T22:17:50.681Z,24.10
2022-12-11T22:20:18.206Z,26.87
2022-12-11T22:22:47.076Z,25.97
2022-12-11T22:25:14.508Z,25.80
2022-12-11T22:27:41.638Z,23.13
2022-12-11T22:30:09.115Z,22.73
2022-12-11T22:32:36.351Z,24.07
2022-12-11T22:35:04.028Z,24.70
2022-12-11T22:37:30.959Z,24.70
2022-12-11T22:39:58.223Z,25.10
2022-12-11T22:42:25.413Z,23.67
2022-12-11T22:44:52.594Z,25.47
2022-12-11T22:47:19.536Z,25.00
2022-12-11T22:49:46.777Z,23.23
2022-12-11T22:52:13.567Z,24.23
2022-12-11T22:54:42.046Z,23.97
2022-12-11T22:57:09.098Z,24.63
2022-12-11T22:59:36.636Z,24.77
2022-12-11T23:02:03.897Z,23.27
2022-12-11T23:04:30.773Z,23.67
2022-12-11T23:06:58.073Z,24.37
2022-12-11T23:09:25.291Z,24.63
2022-12-11T23:11:52.208Z,23.20
2022-12-11T23:14:19.122Z,26.67
2022-12-11T23:16:46.002Z,25.03
2022-12-11T23:19:13.404Z,24.80
2022-12-11T23:21:40.359Z,24.30
2022-12-11T23:24:07.667Z,24.77
2022-12-11T23:26:34.804Z,23.10
2022-12-11T23:29:02.910Z,23.60
2022-12-11T23:31:30.388Z,22.57
2022-12-11T23:33:57.601Z,23.70
2022-12-11T23:36:25.900Z,23.20
2022-12-11T23:38:54.910Z,25.87
2022-12-11T23:41:22.893Z,25.27
2022-12-11T23:43:49.737Z,24.13
2022-12-11T23:46:20.900Z,22.63
2022-12-11T23:48:48.408Z,24.07
2022-12-11T23:51:17.482Z,24.40
2022-12-11T23:53:44.665Z,24.83
2022-12-11T23:56:18.198Z,22.60
2022-12-11T23:58:45.462Z,25.00
